Time;durP1;ratioP1;P1;durP2;ratioP2;P2;SDS_P1;SDS_P2;PMS_P1;PMS_P2;Temp;Humidity;BMP_temperature;BMP_pressure;BME280_temperature;BME280_humidity;BME280_pressure;Samples;Min_cycle;Max_cycle;Signal;HPM_P1;HPM_P2
2022/12/05 00:01:23;;;;;;;30.65;21.27;;;;;;;2.28;100.00;101650.00;5015095;28;20052;-47
2022/12/05 00:03:52;;;;;;;31.20;21.85;;;;;;;2.30;100.00;101650.63;4996625;28;20652;-49
2022/12/05 00:06:21;;;;;;;32.33;21.55;;;;;;;2.33;100.00;101655.63;4994742;28;20074;-47
2022/12/05 00:08:48;;;;;;;31.83;21.88;;;;;;;2.32;100.00;101654.78;4994758;28;20050;-46
2022/12/05 00:11:23;;;;;;;32.75;23.27;;;;;;;2.36;100.00;101657.94;4997460;28;20050;-50
2022/12/05 00:13:53;;;;;;;33.50;23.30;;;;;;;2.36;100.00;101655.25;5012984;28;20121;-48
2022/12/05 00:16:22;;;;;;;31.63;21.60;;;;;;;2.33;100.00;101655.63;4978920;28;20048;-44
2022/12/05 00:18:51;;;;;;;32.67;23.40;;;;;;;2.34;100.00;101654.63;4999691;28;20047;-49
2022/12/05 00:21:24;;;;;;;34.58;23.45;;;;;;;2.33;100.00;101656.47;5011977;28;20046;-49
2022/12/05 00:23:52;;;;;;;33.30;22.42;;;;;;;2.33;100.00;101652.94;5012868;28;20042;-50
2022/12/05 00:26:21;;;;;;;30.95;22.15;;;;;;;2.36;100.00;101655.25;5012627;28;20034;-46
2022/12/05 00:28:49;;;;;;;31.92;21.73;;;;;;;2.39;100.00;101645.97;4991301;28;20046;-46
2022/12/05 00:31:19;;;;;;;31.52;21.58;;;;;;;2.38;100.00;101641.59;5010468;28;20046;-48
2022/12/05 00:33:47;;;;;;;30.05;20.90;;;;;;;2.38;100.00;101647.81;5001719;28;20453;-47
2022/12/05 00:36:18;;;;;;;27.42;19.95;;;;;;;2.43;100.00;101640.00;5013919;28;20045;-48
2022/12/05 00:38:45;;;;;;;30.35;21.95;;;;;;;2.45;100.00;101643.31;4999920;28;20043;-47
2022/12/05 00:41:15;;;;;;;33.08;22.95;;;;;;;2.44;100.00;101641.66;4989670;28;20038;-49
2022/12/05 00:43:43;;;;;;;27.20;18.77;;;;;;;2.45;100.00;101637.94;5005458;28;20038;-47
2022/12/05 00:46:18;;;;;;;30.23;21.25;;;;;;;2.44;100.00;101633.59;4982620;28;20037;-47
2022/12/05 00:48:46;;;;;;;29.00;19.85;;;;;;;2.46;100.00;101639.63;5003010;28;20058;-46
2022/12/05 00:51:27;;;;;;;32.78;22.55;;;;;;;2.49;100.00;101638.41;5007416;28;20046;-49
2022/12/05 00:53:59;;;;;;;29.50;21.48;;;;;;;2.48;100.00;101642.13;4978747;28;20173;-47
2022/12/05 00:56:28;;;;;;;30.08;20.73;;;;;;;2.50;100.00;101632.84;5003929;28;20038;-46
2022/12/05 00:58:57;;;;;;;30.30;21.23;;;;;;;2.51;100.00;101637.16;5004340;28;20416;-47
2022/12/05 01:01:28;;;;;;;31.65;23.17;;;;;;;2.49;100.00;101644.59;4990252;28;20053;-50
2022/12/05 01:03:57;;;;;;;30.10;22.73;;;;;;;2.47;100.00;101638.56;5014086;28;20045;-47
2022/12/05 01:06:26;;;;;;;30.92;21.90;;;;;;;2.47;100.00;101641.25;5008266;28;20038;-50
2022/12/05 01:08:55;;;;;;;33.95;22.77;;;;;;;2.48;100.00;101645.63;4988438;28;20038;-51
2022/12/05 01:11:23;;;;;;;27.42;19.88;;;;;;;2.48;100.00;101648.31;5008023;28;20096;-48
2022/12/05 01:13:52;;;;;;;28.42;20.77;;;;;;;2.51;100.00;101644.41;4986143;28;20041;-48
2022/12/05 01:16:26;;;;;;;29.20;20.85;;;;;;;2.53;100.00;101651.25;5011097;28;20046;-47
2022/12/05 01:18:55;;;;;;;28.85;21.73;;;;;;;2.58;100.00;101641.78;5009409;28;20050;-49
2022/12/05 01:21:23;;;;;;;27.00;19.63;;;;;;;2.59;100.00;101649.66;4993538;28;20049;-48
2022/12/05 01:23:51;;;;;;;31.92;22.10;;;;;;;2.61;100.00;101657.53;4996288;28;20049;-48
2022/12/05 01:26:20;;;;;;;32.45;22.67;;;;;;;2.60;100.00;101653.16;4996379;28;20519;-50
2022/12/05 01:28:48;;;;;;;28.83;20.75;;;;;;;2.61;100.00;101652.16;4992737;28;20042;-49
2022/12/05 01:31:28;;;;;;;30.92;22.73;;;;;;;2.60;100.00;101656.72;5007707;28;20046;-49
2022/12/05 01:33:58;;;;;;;33.20;22.80;;;;;;;2.60;100.00;101664.78;5008782;28;20073;-49
2022/12/05 01:36:27;;;;;;;30.33;22.23;;;;;;;2.63;100.00;101655.47;4990091;28;20042;-48
2022/12/05 01:38:55;;;;;;;29.38;20.15;;;;;;;2.68;100.00;101663.78;4993805;28;20117;-48
2022/12/05 01:41:27;;;;;;;31.35;21.10;;;;;;;2.66;100.00;101671.22;5005536;28;20042;-49
2022/12/05 01:44:00;;;;;;;31.17;21.70;;;;;;;2.62;100.00;101667.25;5007068;28;20052;-46
2022/12/05 01:46:31;;;;;;;30.55;21.00;;;;;;;2.64;100.00;101673.28;5013331;28;20038;-46
2022/12/05 01:49:15;;;;;;;32.10;21.35;;;;;;;2.66;100.00;101679.31;5002591;28;20137;-46
2022/12/05 01:51:45;;;;;;;30.23;21.75;;;;;;;2.66;100.00;101674.75;4988483;28;20125;-48
2022/12/05 01:54:15;;;;;;;31.83;22.08;;;;;;;2.67;100.00;101671.03;4982868;28;20042;-48
2022/12/05 01:56:45;;;;;;;31.42;21.27;;;;;;;2.68;100.00;101677.25;5009472;28;20400;-48
2022/12/05 01:59:13;;;;;;;30.23;21.90;;;;;;;2.62;100.00;101681.56;5005685;28;20049;-48
2022/12/05 02:01:41;;;;;;;31.75;21.38;;;;;;;2.67;100.00;101675.56;4965797;28;20448;-47
2022/12/05 02:04:09;;;;;;;29.65;21.00;;;;;;;2.71;100.00;101674.97;5007955;28;20050;-48
2022/12/05 02:06:37;;;;;;;29.20;21.20;;;;;;;2.72;100.00;101681.22;4989474;28;20050;-48
2022/12/05 02:09:04;;;;;;;32.97;22.20;;;;;;;2.69;100.00;101681.59;4993554;28;20042;-46
2022/12/05 02:11:33;;;;;;;29.42;20.67;;;;;;;2.69;100.00;101681.59;4975828;28;20050;-49
2022/12/05 02:14:16;;;;;;;33.13;22.88;;;;;;;2.71;100.00;101680.38;5006189;28;20045;-46
2022/12/05 02:17:02;;;;;;;32.92;21.80;;;;;;;2.74;100.00;101684.53;5013440;28;20049;-48
2022/12/05 02:19:47;;;;;;;34.38;22.80;;;;;;;2.73;100.00;101682.88;5011313;28;20052;-48
2022/12/05 02:22:52;;;;;;;34.63;22.85;;;;;;;2.72;100.00;101686.59;4991869;28;20449;-50
2022/12/05 02:25:48;;;;;;;34.47;23.45;;;;;;;2.73;100.00;101682.88;4915298;29;20051;-48
2022/12/05 02:28:45;;;;;;;33.88;23.70;;;;;;;2.73;100.00;101677.50;4914375;29;20550;-48
2022/12/05 02:31:20;;;;;;;34.17;23.10;;;;;;;2.72;100.00;101682.06;4994520;28;20061;-45
2022/12/05 02:33:55;;;;;;;32.22;23.02;;;;;;;2.72;100.00;101681.22;5017313;28;20057;-46
2022/12/05 02:36:40;;;;;;;30.67;21.33;;;;;;;2.74;100.00;101680.00;4980928;28;20117;-49
2022/12/05 02:39:46;;;;;;;33.55;23.15;;;;;;;2.77;100.00;101671.53;4995106;28;20057;-49
2022/12/05 02:42:23;;;;;;;29.95;21.65;;;;;;;2.80;100.00;101678.38;4947050;28;20106;-48
2022/12/05 02:44:58;;;;;;;33.17;23.45;;;;;;;2.75;100.00;101676.28;4997459;28;20120;-47
2022/12/05 02:47:28;;;;;;;35.95;22.02;;;;;;;2.72;100.00;101682.06;4999372;28;20103;-47
2022/12/05 02:49:56;;;;;;;31.23;21.42;;;;;;;2.74;100.00;101674.63;4990768;28;20062;-47
2022/12/05 02:52:25;;;;;;;31.77;21.88;;;;;;;2.75;100.00;101678.97;4972722;28;20042;-48
2022/12/05 02:54:54;;;;;;;29.08;21.00;;;;;;;2.74;100.00;101690.75;4990671;28;20035;-49
2022/12/05 02:57:25;;;;;;;35.15;24.27;;;;;;;2.74;100.00;101684.53;4995526;28;20096;-47
2022/12/05 02:59:53;;;;;;;31.08;21.90;;;;;;;2.74;100.00;101687.22;4985286;28;20039;-48
2022/12/05 03:02:27;;;;;;;32.30;23.48;;;;;;;2.78;100.00;101683.13;4993058;28;20065;-48
2022/12/05 03:05:01;;;;;;;32.63;23.48;;;;;;;2.78;100.00;101683.13;4995599;28;20497;-45
2022/12/05 03:07:30;;;;;;;32.22;22.58;;;;;;;2.78;100.00;101686.63;4979519;28;20100;-47
2022/12/05 03:10:00;;;;;;;33.33;24.35;;;;;;;2.80;100.00;101682.94;4986780;28;20047;-47
2022/12/05 03:12:31;;;;;;;31.90;23.65;;;;;;;2.80;100.00;101688.31;4993583;28;20038;-47
2022/12/05 03:15:23;;;;;;;30.52;21.98;;;;;;;2.81;100.00;101682.72;4996560;28;20042;-48
2022/12/05 03:18:16;;;;;;;32.42;22.55;;;;;;;2.81;100.00;101684.59;4995369;28;20050;-48
2022/12/05 03:20:55;;;;;;;33.75;23.73;;;;;;;2.76;100.00;101683.31;4987827;28;20073;-47
2022/12/05 03:23:36;;;;;;;34.95;23.33;;;;;;;2.81;100.00;101679.19;4996457;28;20343;-50
2022/12/05 03:26:03;;;;;;;31.45;23.08;;;;;;;2.80;100.00;101678.38;4991157;28;20507;-45
2022/12/05 03:28:47;;;;;;;30.73;22.08;;;;;;;2.74;100.00;101680.00;4987850;28;20042;-47
2022/12/05 03:31:18;;;;;;;30.30;21.58;;;;;;;2.71;100.00;101684.91;4981343;28;20042;-49
2022/12/05 03:33:50;;;;;;;33.97;22.13;;;;;;;2.68;100.00;101678.06;4995417;28;20049;-50
2022/12/05 03:36:21;;;;;;;32.47;23.17;;;;;;;2.69;100.00;101677.03;4995224;28;20034;-47
2022/12/05 03:38:55;;;;;;;33.05;23.58;;;;;;;2.75;100.00;101675.44;4995004;28;20050;-46
2022/12/05 03:41:44;;;;;;;30.05;23.08;;;;;;;2.77;100.00;101674.22;4978818;28;20555;-46
2022/12/05 03:44:28;;;;;;;34.00;23.48;;;;;;;2.76;100.00;101674.41;4988197;28;20038;-47
2022/12/05 03:46:58;;;;;;;33.88;22.73;;;;;;;2.73;100.00;101675.63;4985764;28;20489;-48
2022/12/05 03:49:38;;;;;;;34.63;23.00;;;;;;;2.77;100.00;101681.47;5006855;28;20057;-46
2022/12/05 03:52:30;;;;;;;33.97;22.92;;;;;;;2.76;100.00;101677.91;4994269;28;20038;-46
2022/12/05 03:55:17;;;;;;;30.60;21.42;;;;;;;2.76;100.00;101677.91;4994720;28;20066;-46
2022/12/05 03:57:59;;;;;;;31.20;22.80;;;;;;;2.79;100.00;101684.81;4972548;28;20047;-46
2022/12/05 04:00:29;;;;;;;31.98;22.88;;;;;;;2.83;100.00;101683.34;4968486;28;20597;-46
2022/12/05 04:03:08;;;;;;;33.58;22.80;;;;;;;2.78;100.00;101678.56;4978341;28;20046;-46
2022/12/05 04:05:42;;;;;;;34.95;22.98;;;;;;;2.76;100.00;101677.91;4989829;28;20046;-45
2022/12/05 04:08:19;;;;;;;32.15;22.95;;;;;;;2.78;100.00;101678.56;5003881;28;20053;-46
2022/12/05 04:10:49;;;;;;;31.58;22.17;;;;;;;2.80;100.00;101674.84;4984453;28;20100;-49
2022/12/05 04:13:22;;;;;;;30.58;22.17;;;;;;;2.80;100.00;101682.94;4987562;28;20081;-49
2022/12/05 04:18:46;;;;;;;33.53;22.65;;;;;;;2.88;100.00;101685.47;4985966;28;20420;-46
2022/12/05 04:26:53;;;;;;;33.00;23.10;;;;;;;2.87;100.00;101692.72;5007244;28;20100;-50
2022/12/05 04:29:28;;;;;;;30.45;21.80;;;;;;;2.88;100.00;101685.47;4972773;28;20043;-49
2022/12/05 04:31:59;;;;;;;31.45;22.38;;;;;;;2.82;100.00;101692.47;4976588;28;20068;-49
2022/12/05 04:34:28;;;;;;;32.80;22.33;;;;;;;2.82;100.00;101691.66;5015039;28;20452;-51
2022/12/05 04:37:01;;;;;;;30.35;22.38;;;;;;;2.82;100.00;101692.47;5012915;28;20084;-47
2022/12/05 04:39:31;;;;;;;29.75;20.75;;;;;;;2.78;100.00;101693.88;4989659;28;20042;-50
2022/12/05 04:42:06;;;;;;;31.02;21.90;;;;;;;2.80;100.00;101699.09;4993154;28;20034;-48
2022/12/05 04:44:45;;;;;;;32.08;21.15;;;;;;;2.82;100.00;101697.84;5006675;28;20046;-50
2022/12/05 04:47:13;;;;;;;31.35;20.38;;;;;;;2.81;100.00;101706.94;4991426;28;20532;-46
2022/12/05 04:49:42;;;;;;;29.40;21.70;;;;;;;2.83;100.00;101704.88;5002728;28;20168;-46
2022/12/05 04:52:14;;;;;;;30.00;20.27;;;;;;;2.85;100.00;101700.16;4995991;28;20042;-46
2022/12/05 04:54:49;;;;;;;33.88;23.02;;;;;;;2.87;100.00;101699.97;5013704;28;20046;-52
2022/12/05 04:58:00;;;;;;;32.75;21.42;;;;;;;2.86;100.00;101699.13;4991393;28;20042;-44
2022/12/05 05:00:30;;;;;;;30.70;21.85;;;;;;;2.83;100.00;101694.13;4966710;28;20042;-47
2022/12/05 05:03:24;;;;;;;27.42;19.75;;;;;;;2.85;100.00;101694.78;5007207;28;20038;-45
2022/12/05 05:05:54;;;;;;;29.13;20.35;;;;;;;2.85;100.00;101697.47;5011697;28;20520;-45
2022/12/05 05:08:26;;;;;;;29.40;21.17;;;;;;;2.84;100.00;101698.50;4978800;28;20034;-51
2022/12/05 05:11:14;;;;;;;28.35;20.10;;;;;;;2.86;100.00;101692.91;4999316;28;20075;-49
2022/12/05 05:13:42;;;;;;;30.23;20.35;;;;;;;2.89;100.00;101695.22;4973916;28;20050;-48
2022/12/05 05:16:27;;;;;;;27.65;19.67;;;;;;;2.89;100.00;101698.75;4994467;28;20050;-46
2022/12/05 05:18:56;;;;;;;28.90;19.95;;;;;;;2.90;100.00;101705.78;4981597;28;20049;-46
2022/12/05 05:21:29;;;;;;;26.52;19.73;;;;;;;2.91;100.00;101702.06;5005762;28;20050;-46
2022/12/05 05:23:57;;;;;;;25.80;18.20;;;;;;;2.95;100.00;101702.50;4973243;28;20038;-49
2022/12/05 05:26:26;;;;;;;25.33;17.85;;;;;;;2.98;100.00;101708.34;4991422;28;20042;-46
2022/12/05 05:28:54;;;;;;;25.98;18.65;;;;;;;2.93;100.00;101710.75;4974127;28;20046;-49
2022/12/05 05:31:22;;;;;;;24.75;18.20;;;;;;;2.93;100.00;101708.06;4977319;28;20046;-47
2022/12/05 05:33:51;;;;;;;24.95;17.85;;;;;;;2.96;100.00;101704.19;4971578;28;20069;-49
2022/12/05 05:36:19;;;;;;;25.13;18.38;;;;;;;2.95;100.00;101713.28;4985704;28;20104;-49
2022/12/05 05:38:49;;;;;;;25.80;17.83;;;;;;;2.93;100.00;101705.38;4982719;28;20522;-47
2022/12/05 05:41:22;;;;;;;25.42;17.80;;;;;;;2.92;100.00;101705.59;5013443;28;20034;-46
2022/12/05 05:43:50;;;;;;;25.27;17.85;;;;;;;2.91;100.00;101706.59;4986160;28;20052;-47
2022/12/05 05:46:20;;;;;;;25.95;17.88;;;;;;;2.92;100.00;101708.28;4966509;28;20464;-49
2022/12/05 05:48:48;;;;;;;24.38;16.38;;;;;;;2.91;100.00;101712.84;4994309;28;20104;-48
2022/12/05 05:51:16;;;;;;;25.20;17.60;;;;;;;2.95;100.00;101713.28;5013029;28;20050;-48
2022/12/05 05:53:44;;;;;;;21.30;15.75;;;;;;;2.99;100.00;101710.00;4968364;28;20129;-49
2022/12/05 05:56:18;;;;;;;23.20;16.58;;;;;;;3.06;100.00;101709.22;4995761;28;20046;-49
2022/12/05 05:58:53;;;;;;;22.92;17.20;;;;;;;3.03;100.00;101710.44;5006371;28;20046;-49
2022/12/05 06:01:21;;;;;;;24.95;17.38;;;;;;;3.02;100.00;101710.63;5009340;28;20037;-47
2022/12/05 06:03:49;;;;;;;23.73;16.67;;;;;;;2.98;100.00;101711.03;4995314;28;20496;-47
2022/12/05 06:06:18;;;;;;;24.05;16.15;;;;;;;2.99;100.00;101710.00;5006176;28;20050;-45
2022/12/05 06:08:46;;;;;;;22.38;16.20;;;;;;;2.99;100.00;101710.00;5013089;28;20042;-46
2022/12/05 06:11:19;;;;;;;21.58;16.17;;;;;;;2.98;100.00;101711.03;4995059;28;20053;-49
2022/12/05 06:13:54;;;;;;;24.13;17.13;;;;;;;3.01;100.00;101717.03;5002127;28;20046;-45
2022/12/05 06:16:22;;;;;;;22.13;15.65;;;;;;;2.98;100.00;101719.09;5000764;28;20050;-47
2022/12/05 06:18:51;;;;;;;22.55;15.57;;;;;;;2.98;100.00;101724.50;4976001;28;20041;-49
2022/12/05 06:21:19;;;;;;;24.13;17.65;;;;;;;2.98;100.00;101721.81;4997763;28;20041;-46
2022/12/05 06:23:47;;;;;;;25.58;17.35;;;;;;;2.95;100.00;101719.47;5012754;28;20038;-47
2022/12/05 06:26:17;;;;;;;25.52;18.63;;;;;;;2.97;100.00;101717.44;5004768;28;20101;-49
2022/12/05 06:28:45;;;;;;;25.52;16.73;;;;;;;2.97;100.00;101722.81;4993833;28;20497;-48
2022/12/05 06:31:16;;;;;;;25.42;17.10;;;;;;;2.98;100.00;101734.41;5001469;28;20057;-48
2022/12/05 06:33:44;;;;;;;22.75;16.25;;;;;;;2.99;100.00;101720.75;5011233;28;20053;-49
2022/12/05 06:36:14;;;;;;;21.30;15.98;;;;;;;3.06;100.00;101730.75;4992356;28;20058;-50
2022/12/05 06:38:42;;;;;;;24.95;16.10;;;;;;;3.06;100.00;101731.59;5001336;28;20074;-47
2022/12/05 06:41:15;;;;;;;21.25;15.10;;;;;;;3.07;100.00;101733.25;4975730;28;20042;-47
2022/12/05 06:43:43;;;;;;;20.60;15.52;;;;;;;3.08;100.00;101731.38;4989985;28;20038;-47
2022/12/05 06:46:12;;;;;;;19.75;14.27;;;;;;;3.08;100.00;101734.91;4311063;28;10000856;-50
2022/12/05 06:48:39;;;;;;;20.17;15.20;;;;;;;3.10;100.00;101729.31;4994991;28;20050;-48
2022/12/05 06:51:10;;;;;;;20.35;14.45;;;;;;;3.11;100.00;101733.69;5008945;28;20092;-49
2022/12/05 06:53:38;;;;;;;19.38;14.70;;;;;;;3.11;100.00;101734.53;5002593;28;20064;-50
2022/12/05 06:56:10;;;;;;;22.83;15.52;;;;;;;3.11;100.00;101731.00;4983671;28;20452;-48
2022/12/05 06:58:38;;;;;;;20.10;14.75;;;;;;;3.08;100.00;101734.06;4973769;28;20054;-46
2022/12/05 07:03:58;;;;;;;20.35;14.75;;;;;;;3.11;100.00;101739.91;4998689;28;20042;-48
2022/12/05 07:06:25;;;;;;;22.33;15.48;;;;;;;3.11;100.00;101731.81;4995414;28;20049;-48
2022/12/05 07:08:53;;;;;;;22.25;15.32;;;;;;;3.11;100.00;101739.91;5003473;28;20038;-48
2022/12/05 07:11:21;;;;;;;21.15;14.63;;;;;;;3.12;100.00;101740.72;4994750;28;20046;-50
2022/12/05 07:13:49;;;;;;;19.55;14.57;;;;;;;3.12;100.00;101740.72;4975235;28;20428;-48
2022/12/05 07:16:16;;;;;;;19.95;14.48;;;;;;;3.13;100.00;101747.78;5002293;28;20045;-48
2022/12/05 07:18:44;;;;;;;23.00;16.02;;;;;;;3.13;100.00;101754.00;4984511;28;20053;-48
2022/12/05 07:21:14;;;;;;;19.80;13.32;;;;;;;3.18;100.00;101756.13;4992320;28;20046;-50
2022/12/05 07:23:44;;;;;;;19.75;14.65;;;;;;;3.20;100.00;101759.44;4996609;28;20125;-49
2022/12/05 07:26:14;;;;;;;18.63;14.23;;;;;;;3.18;100.00;101758.81;5010457;28;20050;-48
2022/12/05 07:28:42;;;;;;;18.33;12.93;;;;;;;3.19;100.00;101763.16;4994569;28;20447;-50
2022/12/05 07:31:15;;;;;;;19.20;14.27;;;;;;;3.20;100.00;101764.84;4989473;28;20105;-50
2022/12/05 07:33:43;;;;;;;20.63;15.02;;;;;;;3.24;100.00;101765.25;4995027;28;20080;-48
2022/12/05 07:36:14;;;;;;;19.67;15.38;;;;;;;3.24;100.00;101767.97;4990510;28;20046;-47
2022/12/05 07:38:42;;;;;;;21.73;15.73;;;;;;;3.25;100.00;101762.38;4989834;28;20058;-46
2022/12/05 07:41:18;;;;;;;21.02;15.43;;;;;;;3.26;100.00;101763.22;4994635;28;20046;-50
2022/12/05 07:43:46;;;;;;;20.60;14.73;;;;;;;3.29;100.00;101760.94;4984636;28;20057;-46
2022/12/05 07:46:13;;;;;;;19.15;14.45;;;;;;;3.31;100.00;101772.34;5009944;28;20042;-49
2022/12/05 07:48:41;;;;;;;17.98;13.88;;;;;;;3.31;100.00;101766.13;5004974;28;20069;-46
2022/12/05 07:51:10;;;;;;;20.13;15.07;;;;;;;3.30;100.00;101768.00;4992318;28;20046;-47
2022/12/05 07:53:38;;;;;;;20.80;15.18;;;;;;;3.31;100.00;101771.53;4992426;28;20520;-48
2022/12/05 07:56:07;;;;;;;19.02;14.35;;;;;;;3.32;100.00;101767.78;4988641;28;20480;-48
2022/12/05 07:58:35;;;;;;;18.83;14.35;;;;;;;3.37;100.00;101776.97;4975402;28;20050;-47
2022/12/05 08:01:11;;;;;;;20.48;15.07;;;;;;;3.35;100.00;101779.03;4991865;28;20037;-47
2022/12/05 08:03:39;;;;;;;21.88;15.38;;;;;;;3.34;100.00;101785.44;4992450;28;20038;-50
2022/12/05 08:06:15;;;;;;;21.63;15.38;;;;;;;3.39;100.00;101780.31;4981146;28;20054;-50
2022/12/05 08:08:43;;;;;;;21.02;15.88;;;;;;;3.38;100.00;101785.88;4996733;28;20515;-49
2022/12/05 08:11:13;;;;;;;24.70;15.05;;;;;;;3.39;100.00;101787.53;4981322;28;20104;-48
2022/12/05 08:13:42;;;;;;;21.90;15.63;;;;;;;3.39;100.00;101793.78;4993855;28;20475;-48
2022/12/05 08:16:11;;;;;;;20.40;15.18;;;;;;;3.38;100.00;101792.09;5003813;28;20057;-48
2022/12/05 08:18:40;;;;;;;21.05;15.75;;;;;;;3.38;100.00;101802.03;5007702;28;20049;-48
2022/12/05 08:21:18;;;;;;;22.10;14.90;;;;;;;3.39;100.00;101801.84;4975235;28;20042;-49
2022/12/05 08:23:46;;;;;;;20.77;16.10;;;;;;;3.42;100.00;101804.16;4983908;28;20614;-47
2022/12/05 08:26:20;;;;;;;23.50;16.52;;;;;;;3.44;100.00;101803.09;5000361;28;20050;-46
2022/12/05 08:28:52;;;;;;;20.45;15.82;;;;;;;3.45;100.00;101810.19;4991059;28;20083;-48
2022/12/05 08:31:22;;;;;;;22.30;15.88;;;;;;;3.43;100.00;101810.38;4988324;28;20052;-48
2022/12/05 08:33:51;;;;;;;23.23;15.82;;;;;;;3.41;100.00;101805.16;4986498;28;20113;-49
2022/12/05 08:36:26;;;;;;;24.23;16.30;;;;;;;3.41;100.00;101805.16;4994269;28;20050;-48
2022/12/05 08:39:03;;;;;;;20.80;15.18;;;;;;;3.45;100.00;101807.47;5010998;28;20046;-50
2022/12/05 08:41:30;;;;;;;20.05;15.50;;;;;;;3.47;100.00;101813.50;4998042;28;20043;-50
2022/12/05 08:44:01;;;;;;;20.75;14.77;;;;;;;3.50;100.00;101811.25;4977506;28;20046;-46
2022/12/05 08:46:31;;;;;;;21.25;15.48;;;;;;;3.54;100.00;101817.09;4972069;28;20510;-49
2022/12/05 08:48:58;;;;;;;21.63;14.90;;;;;;;3.56;100.00;101817.69;5005497;28;20050;-48
2022/12/05 08:51:26;;;;;;;23.52;16.67;;;;;;;3.56;100.00;101813.16;5001798;28;20034;-49
2022/12/05 08:53:55;;;;;;;20.00;15.35;;;;;;;3.57;100.00;101816.69;4977729;28;20038;-51
2022/12/05 08:56:23;;;;;;;20.52;16.05;;;;;;;3.54;100.00;101819.78;4987142;28;20057;-47
2022/12/05 08:58:54;;;;;;;21.77;16.08;;;;;;;3.49;100.00;101817.66;5013696;28;20066;-47
2022/12/05 09:01:31;;;;;;;21.70;15.38;;;;;;;3.50;100.00;101823.88;4997731;28;20062;-47
2022/12/05 09:04:01;;;;;;;20.67;14.93;;;;;;;3.52;100.00;101827.22;4988167;28;20493;-48
2022/12/05 09:06:29;;;;;;;19.83;14.55;;;;;;;3.53;100.00;101831.56;5000042;28;20042;-49
2022/12/05 09:08:59;;;;;;;20.20;14.40;;;;;;;3.51;100.00;101834.47;5013515;28;20049;-50
2022/12/05 09:11:30;;;;;;;18.77;14.20;;;;;;;3.53;100.00;101823.47;5011369;28;20038;-48
2022/12/05 09:13:58;;;;;;;18.50;13.80;;;;;;;3.56;100.00;101834.72;5001825;28;20053;-48
2022/12/05 09:16:29;;;;;;;19.50;13.95;;;;;;;3.58;100.00;101829.13;5008768;28;20045;-48
2022/12/05 09:19:13;;;;;;;17.67;12.85;;;;;;;3.59;100.00;101838.88;5001972;28;20041;-48
2022/12/05 09:21:42;;;;;;;20.83;14.17;;;;;;;3.61;100.00;101842.22;5012337;28;20065;-48
2022/12/05 09:24:11;;;;;;;19.27;14.00;;;;;;;3.59;100.00;101844.28;5001610;28;20358;-49
2022/12/05 09:26:39;;;;;;;19.00;13.48;;;;;;;3.58;100.00;101838.06;4995679;28;20048;-47
2022/12/05 09:29:07;;;;;;;18.65;13.63;;;;;;;3.59;100.00;101841.56;4995979;28;20038;-49
2022/12/05 09:31:44;;;;;;;16.80;12.60;;;;;;;3.58;100.00;101842.59;5011366;28;20133;-49
2022/12/05 09:34:13;;;;;;;18.33;12.65;;;;;;;3.62;100.00;101849.25;4976891;28;20056;-48
2022/12/05 09:36:41;;;;;;;17.58;11.90;;;;;;;3.61;100.00;101845.75;5013995;28;20058;-47
2022/12/05 09:39:09;;;;;;;15.13;11.18;;;;;;;3.61;100.00;101847.59;5013448;28;20045;-48
2022/12/05 09:42:06;;;;;;;14.60;10.23;;;;;;;3.58;100.00;101853.38;5009440;28;20409;-47
2022/12/05 09:44:44;;;;;;;14.13;10.13;;;;;;;3.58;100.00;101854.22;4965761;28;20041;-48
2022/12/05 09:47:34;;;;;;;15.60;10.80;;;;;;;3.62;100.00;101860.03;4990078;28;20045;-46
2022/12/05 09:50:11;;;;;;;13.52;9.95;;;;;;;3.62;100.00;101858.16;4976329;28;20054;-47
2022/12/05 09:52:49;;;;;;;15.75;10.35;;;;;;;3.66;100.00;101861.31;4984569;28;20041;-48
2022/12/05 09:55:18;;;;;;;13.25;9.43;;;;;;;3.67;100.00;101865.66;5003629;28;20046;-49
2022/12/05 09:57:56;;;;;;;12.77;9.23;;;;;;;3.69;100.00;101860.09;5013697;28;20133;-47
2022/12/05 10:00:26;;;;;;;13.52;9.70;;;;;;;3.69;100.00;101865.47;4995955;28;20030;-51
2022/12/05 10:03:17;;;;;;;15.18;9.75;;;;;;;3.67;100.00;101862.16;4981521;28;20053;-50
2022/12/05 10:05:54;;;;;;;12.43;8.82;;;;;;;3.66;100.00;101861.31;4982311;28;20046;-50
2022/12/05 10:08:48;;;;;;;13.77;9.00;;;;;;;3.63;100.00;101867.09;4991341;28;20050;-47
2022/12/05 10:11:30;;;;;;;12.88;7.40;;;;;;;3.61;100.00;101863.78;4960087;28;20069;-48
2022/12/05 10:14:09;;;;;;;10.73;7.47;;;;;;;3.61;100.00;101861.09;4995109;28;20046;-45
2022/12/05 10:16:51;;;;;;;10.60;6.88;;;;;;;3.64;100.00;101860.69;4993412;28;20101;-49
2022/12/05 10:19:26;;;;;;;11.07;7.35;;;;;;;3.65;100.00;101865.03;5002734;28;20038;-47
2022/12/05 10:22:14;;;;;;;9.05;6.30;;;;;;;3.62;100.00;101865.44;5006888;28;20038;-52
2022/12/05 10:24:51;;;;;;;13.07;6.80;;;;;;;3.61;100.00;101871.84;5010738;28;20034;-51
2022/12/05 10:27:24;;;;;;;8.70;5.60;;;;;;;3.59;100.00;101865.81;4987300;28;20038;-48
2022/12/05 10:30:12;;;;;;;8.35;5.45;;;;;;;3.55;100.00;101864.53;4992327;28;20537;-48
2022/12/05 10:32:53;;;;;;;7.97;4.78;;;;;;;3.58;100.00;101866.84;4991138;28;20048;-49
2022/12/05 10:35:35;;;;;;;9.35;5.13;;;;;;;3.58;100.00;101862.31;4998634;28;20038;-49
2022/12/05 10:38:21;;;;;;;8.20;5.13;;;;;;;3.58;100.00;101858.75;4985295;28;20050;-47
2022/12/05 10:40:57;;;;;;;8.63;5.43;;;;;;;3.54;100.00;101869.09;4966865;28;20046;-49
2022/12/05 10:43:29;;;;;;;9.05;5.10;;;;;;;3.54;100.00;101869.09;4979099;28;20050;-50
2022/12/05 10:45:58;;;;;;;9.25;5.22;;;;;;;3.52;100.00;101867.63;4997835;28;20043;-52
2022/12/05 10:48:26;;;;;;;8.43;5.65;;;;;;;3.49;100.00;101862.63;4963723;28;20408;-49
2022/12/05 10:50:57;;;;;;;8.82;5.25;;;;;;;3.50;100.00;101867.00;4997866;28;20054;-50
2022/12/05 10:53:30;;;;;;;9.23;5.35;;;;;;;3.50;100.00;101861.59;4992077;28;20516;-48
2022/12/05 10:55:57;;;;;;;9.30;5.57;;;;;;;3.51;100.00;101865.94;4974725;28;20085;-49
2022/12/05 10:58:56;;;;;;;9.48;6.30;;;;;;;3.48;100.00;101855.56;5007140;28;20057;-48
2022/12/05 11:01:25;;;;;;;10.30;6.38;;;;;;;3.46;100.00;101855.75;4944855;28;20105;-48
2022/12/05 11:04:20;;;;;;;10.73;5.97;;;;;;;3.44;100.00;101862.38;4957791;28;20035;-50
2022/12/05 11:06:54;;;;;;;11.73;6.63;;;;;;;3.46;100.00;101865.72;4986440;28;20061;-49
2022/12/05 11:09:28;;;;;;;9.85;5.95;;;;;;;3.46;100.00;101860.31;4977452;28;20057;-47
2022/12/05 11:12:16;;;;;;;10.07;5.63;;;;;;;3.52;100.00;101854.16;4997012;28;20054;-51
2022/12/05 11:15:21;;;;;;;9.63;6.15;;;;;;;3.58;100.00;101856.91;4976401;28;20054;-46
2022/12/05 11:17:50;;;;;;;10.02;6.30;;;;;;;3.63;100.00;101854.47;4986441;28;20047;-50
2022/12/05 11:20:18;;;;;;;9.82;6.32;;;;;;;3.66;100.00;101845.16;4989276;28;20412;-49
2022/12/05 11:22:56;;;;;;;10.35;6.72;;;;;;;3.65;100.00;101848.03;4993584;28;20440;-48
2022/12/05 11:25:30;;;;;;;10.35;6.25;;;;;;;3.65;100.00;101848.03;4977257;28;20037;-50
2022/12/05 11:27:59;;;;;;;10.13;6.47;;;;;;;3.67;100.00;101849.50;4984871;28;20046;-49
2022/12/05 11:30:28;;;;;;;9.18;6.18;;;;;;;3.69;100.00;101844.75;4305423;28;9999920;-49
2022/12/05 11:33:19;;;;;;;10.02;6.32;;;;;;;3.70;100.00;101843.69;4992610;28;20046;-48
2022/12/05 11:35:48;;;;;;;10.98;6.60;;;;;;;3.71;100.00;101842.69;4983704;28;20034;-48
2022/12/05 11:38:17;;;;;;;9.93;6.13;;;;;;;3.74;100.00;101853.06;4983224;28;20042;-48
2022/12/05 11:40:55;;;;;;;10.52;6.25;;;;;;;3.75;100.00;101849.38;4975589;28;20084;-49
2022/12/05 11:43:40;;;;;;;10.02;6.30;;;;;;;3.75;100.00;101852.06;4975564;28;20057;-48
2022/12/05 11:46:40;;;;;;;11.30;6.10;;;;;;;3.74;100.00;101853.06;4985555;28;20057;-49
2022/12/05 11:49:41;;;;;;;9.68;5.85;;;;;;;3.75;100.00;101853.91;5011631;28;20112;-46
2022/12/05 11:52:23;;;;;;;9.85;6.10;;;;;;;3.75;100.00;101849.38;4964163;28;20058;-47